sensor_id;sensor_type;location;lat;lon;timestamp;temperature;humidity
12819;DHT22;6474;53.474;9.894;2023-12-22T07:55:37;2.80;92.40
12819;DHT22;6474;53.474;9.894;2023-12-22T07:58:05;2.70;92.70
12819;DHT22;6474;53.474;9.894;2023-12-22T08:00:34;2.70;93.20
12819;DHT22;6474;53.474;9.894;2023-12-22T08:03:02;2.70;93.50
12819;DHT22;6474;53.474;9.894;2023-12-22T08:05:29;2.70;93.70
12819;DHT22;6474;53.474;9.894;2023-12-22T08:07:58;2.70;94.00
12819;DHT22;6474;53.474;9.894;2023-12-22T08:10:26;2.70;94.20
12819;DHT22;6474;53.474;9.894;2023-12-22T08:12:55;2.80;94.50
12819;DHT22;6474;53.474;9.894;2023-12-22T08:15:23;2.90;94.80
12819;DHT22;6474;53.474;9.894;2023-12-22T08:18:02;2.90;94.90
12819;DHT22;6474;53.474;9.894;2023-12-22T08:20:31;3.00;95.00
12819;DHT22;6474;53.474;9.894;2023-12-22T08:23:06;3.10;95.10
12819;DHT22;6474;53.474;9.894;2023-12-22T08:25:38;3.30;95.40
12819;DHT22;6474;53.474;9.894;2023-12-22T08:28:09;3.40;95.80
12819;DHT22;6474;53.474;9.894;2023-12-22T08:30:39;3.50;95.60
12819;DHT22;6474;53.474;9.894;2023-12-22T08:33:07;3.60;95.60
12819;DHT22;6474;53.474;9.894;2023-12-22T08:35:35;3.70;95.60
12819;DHT22;6474;53.474;9.894;2023-12-22T08:38:03;3.80;95.50
12819;DHT22;6474;53.474;9.894;2023-12-22T08:40:31;3.80;95.30
12819;DHT22;6474;53.474;9.894;2023-12-22T08:43:00;3.80;95.20
12819;DHT22;6474;53.474;9.894;2023-12-22T08:45:29;3.70;95.10
12819;DHT22;6474;53.474;9.894;2023-12-22T08:47:57;3.70;95.30
12819;DHT22;6474;53.474;9.894;2023-12-22T08:50:25;3.70;95.30
12819;DHT22;6474;53.474;9.894;2023-12-22T08:52:53;3.70;95.30
12819;DHT22;6474;53.474;9.894;2023-12-22T08:55:21;3.70;95.50
12819;DHT22;6474;53.474;9.894;2023-12-22T08:57:49;3.70;95.70
12819;DHT22;6474;53.474;9.894;2023-12-22T09:00:29;3.80;96.00
12819;DHT22;6474;53.474;9.894;2023-12-22T09:02:57;3.80;96.00
12819;DHT22;6474;53.474;9.894;2023-12-22T09:05:25;3.90;96.00
12819;DHT22;6474;53.474;9.894;2023-12-22T09:07:53;3.90;95.80
12819;DHT22;6474;53.474;9.894;2023-12-22T09:10:21;3.90;95.70
12819;DHT22;6474;53.474;9.894;2023-12-22T09:12:49;3.90;95.80
12819;DHT22;6474;53.474;9.894;2023-12-22T09:15:17;3.90;95.80
12819;DHT22;6474;53.474;9.894;2023-12-22T09:17:46;3.90;95.80
12819;DHT22;6474;53.474;9.894;2023-12-22T09:20:15;3.80;95.90
12819;DHT22;6474;53.474;9.894;2023-12-22T09:22:43;3.90;96.50
12819;DHT22;6474;53.474;9.894;2023-12-22T09:25:11;3.90;96.20
12819;DHT22;6474;53.474;9.894;2023-12-22T09:27:39;4.00;96.30
12819;DHT22;6474;53.474;9.894;2023-12-22T09:30:07;4.00;96.20
12819;DHT22;6474;53.474;9.894;2023-12-22T09:32:35;4.00;96.10
12819;DHT22;6474;53.474;9.894;2023-12-22T09:35:05;4.10;96.10
12819;DHT22;6474;53.474;9.894;2023-12-22T09:37:33;4.10;96.10
12819;DHT22;6474;53.474;9.894;2023-12-22T09:40:03;4.10;96.10
12819;DHT22;6474;53.474;9.894;2023-12-22T09:42:35;4.10;96.10
12819;DHT22;6474;53.474;9.894;2023-12-22T09:45:06;4.10;96.10
12819;DHT22;6474;53.474;9.894;2023-12-22T09:47:36;4.10;96.00
12819;DHT22;6474;53.474;9.894;2023-12-22T09:50:07;4.10;96.00
12819;DHT22;6474;53.474;9.894;2023-12-22T09:52:36;4.10;96.00
12819;DHT22;6474;53.474;9.894;2023-12-22T09:55:04;4.20;96.10
12819;DHT22;6474;53.474;9.894;2023-12-22T09:57:35;4.20;96.30
12819;DHT22;6474;53.474;9.894;2023-12-22T10:00:05;4.30;96.50
12819;DHT22;6474;53.474;9.894;2023-12-22T10:02:34;4.40;96.70
12819;DHT22;6474;53.474;9.894;2023-12-22T10:05:03;4.50;96.80
12819;DHT22;6474;53.474;9.894;2023-12-22T10:07:33;4.60;96.80
12819;DHT22;6474;53.474;9.894;2023-12-22T10:10:04;4.60;96.80
12819;DHT22;6474;53.474;9.894;2023-12-22T10:12:34;4.70;96.70
12819;DHT22;6474;53.474;9.894;2023-12-22T10:15:02;4.80;96.70
12819;DHT22;6474;53.474;9.894;2023-12-22T10:17:30;4.80;96.70
12819;DHT22;6474;53.474;9.894;2023-12-22T10:19:59;4.80;96.70
12819;DHT22;6474;53.474;9.894;2023-12-22T10:22:27;4.90;96.70
12819;DHT22;6474;53.474;9.894;2023-12-22T10:24:57;4.90;96.70
12819;DHT22;6474;53.474;9.894;2023-12-22T10:27:24;4.90;96.70
12819;DHT22;6474;53.474;9.894;2023-12-22T10:29:55;4.90;96.70
12819;DHT22;6474;53.474;9.894;2023-12-22T10:32:24;4.90;96.70
12819;DHT22;6474;53.474;9.894;2023-12-22T10:34:51;4.90;96.70
12819;DHT22;6474;53.474;9.894;2023-12-22T10:37:20;5.00;96.80
12819;DHT22;6474;53.474;9.894;2023-12-22T10:39:52;5.00;96.80
12819;DHT22;6474;53.474;9.894;2023-12-22T10:42:21;5.00;96.70
12819;DHT22;6474;53.474;9.894;2023-12-22T10:44:49;4.90;96.40
12819;DHT22;6474;53.474;9.894;2023-12-22T10:47:19;4.80;96.20
12819;DHT22;6474;53.474;9.894;2023-12-22T10:49:48;4.70;96.10
12819;DHT22;6474;53.474;9.894;2023-12-22T10:52:16;4.60;96.20
12819;DHT22;6474;53.474;9.894;2023-12-22T10:54:45;4.60;96.40
12819;DHT22;6474;53.474;9.894;2023-12-22T10:57:13;4.60;96.60
12819;DHT22;6474;53.474;9.894;2023-12-22T10:59:47;4.50;96.50
12819;DHT22;6474;53.474;9.894;2023-12-22T11:02:19;4.50;96.50
12819;DHT22;6474;53.474;9.894;2023-12-22T11:04:52;4.40;96.30
12819;DHT22;6474;53.474;9.894;2023-12-22T11:07:24;4.40;96.30
12819;DHT22;6474;53.474;9.894;2023-12-22T11:09:53;4.30;96.30
12819;DHT22;6474;53.474;9.894;2023-12-22T11:12:24;4.30;96.60
12819;DHT22;6474;53.474;9.894;2023-12-22T11:14:56;4.20;96.20
12819;DHT22;6474;53.474;9.894;2023-12-22T11:17:26;4.20;96.20
12819;DHT22;6474;53.474;9.894;2023-12-22T11:19:56;4.10;96.20
12819;DHT22;6474;53.474;9.894;2023-12-22T11:22:25;4.10;96.30
12819;DHT22;6474;53.474;9.894;2023-12-22T11:24:55;4.00;96.20
12819;DHT22;6474;53.474;9.894;2023-12-22T11:27:24;3.90;96.40
12819;DHT22;6474;53.474;9.894;2023-12-22T11:29:55;3.80;96.10
12819;DHT22;6474;53.474;9.894;2023-12-22T11:32:24;3.80;96.30
12819;DHT22;6474;53.474;9.894;2023-12-22T11:34:53;3.80;96.40
12819;DHT22;6474;53.474;9.894;2023-12-22T11:37:22;3.70;96.40
12819;DHT22;6474;53.474;9.894;2023-12-22T11:39:50;3.70;96.40
12819;DHT22;6474;53.474;9.894;2023-12-22T11:42:23;3.70;96.50
12819;DHT22;6474;53.474;9.894;2023-12-22T11:44:52;3.70;96.50
12819;DHT22;6474;53.474;9.894;2023-12-22T11:47:24;3.70;96.60
12819;DHT22;6474;53.474;9.894;2023-12-22T11:49:52;3.70;96.70
12819;DHT22;6474;53.474;9.894;2023-12-22T11:52:25;3.70;96.60
12819;DHT22;6474;53.474;9.894;2023-12-22T11:54:56;3.80;96.70
12819;DHT22;6474;53.474;9.894;2023-12-22T11:57:33;3.80;96.70
12819;DHT22;6474;53.474;9.894;2023-12-22T12:00:06;3.90;96.80
12819;DHT22;6474;53.474;9.894;2023-12-22T12:02:37;3.90;96.70
12819;DHT22;6474;53.474;9.894;2023-12-22T12:05:07;3.90;96.80
12819;DHT22;6474;53.474;9.894;2023-12-22T12:07:40;4.00;96.50
12819;DHT22;6474;53.474;9.894;2023-12-22T12:10:08;4.00;96.50
12819;DHT22;6474;53.474;9.894;2023-12-22T12:12:36;4.00;96.50
12819;DHT22;6474;53.474;9.894;2023-12-22T12:15:09;4.10;96.60
12819;DHT22;6474;53.474;9.894;2023-12-22T12:17:42;4.10;96.60
12819;DHT22;6474;53.474;9.894;2023-12-22T12:20:11;4.20;96.70
12819;DHT22;6474;53.474;9.894;2023-12-22T12:22:39;4.20;96.60
12819;DHT22;6474;53.474;9.894;2023-12-22T12:25:08;4.30;96.90
12819;DHT22;6474;53.474;9.894;2023-12-22T12:28:00;4.30;96.70
12819;DHT22;6474;53.474;9.894;2023-12-22T12:30:30;4.40;96.70
12819;DHT22;6474;53.474;9.894;2023-12-22T12:33:06;4.40;96.70
12819;DHT22;6474;53.474;9.894;2023-12-22T12:35:34;4.40;96.70
12819;DHT22;6474;53.474;9.894;2023-12-22T12:38:07;4.50;96.70
12819;DHT22;6474;53.474;9.894;2023-12-22T12:40:37;4.50;96.70
12819;DHT22;6474;53.474;9.894;2023-12-22T12:43:07;4.60;96.80
12819;DHT22;6474;53.474;9.894;2023-12-22T12:45:35;4.60;96.80
12819;DHT22;6474;53.474;9.894;2023-12-22T12:48:05;4.60;96.80
12819;DHT22;6474;53.474;9.894;2023-12-22T12:50:35;4.60;96.80
12819;DHT22;6474;53.474;9.894;2023-12-22T12:53:05;4.70;96.80
12819;DHT22;6474;53.474;9.894;2023-12-22T12:55:33;4.70;96.80
12819;DHT22;6474;53.474;9.894;2023-12-22T12:58:01;4.70;96.80
12819;DHT22;6474;53.474;9.894;2023-12-22T13:00:32;4.70;96.80
12819;DHT22;6474;53.474;9.894;2023-12-22T13:03:05;4.70;96.80
12819;DHT22;6474;53.474;9.894;2023-12-22T13:05:34;4.80;96.80
12819;DHT22;6474;53.474;9.894;2023-12-22T13:08:09;4.80;96.80
12819;DHT22;6474;53.474;9.894;2023-12-22T13:10:38;4.80;96.80
12819;DHT22;6474;53.474;9.894;2023-12-22T13:13:06;4.80;96.80
12819;DHT22;6474;53.474;9.894;2023-12-22T13:15:34;4.80;96.70
12819;DHT22;6474;53.474;9.894;2023-12-22T13:18:04;4.80;96.70
12819;DHT22;6474;53.474;9.894;2023-12-22T13:20:32;4.80;96.70
12819;DHT22;6474;53.474;9.894;2023-12-22T13:23:01;4.80;96.70
12819;DHT22;6474;53.474;9.894;2023-12-22T13:25:38;4.80;96.70
12819;DHT22;6474;53.474;9.894;2023-12-22T13:28:06;4.80;96.80
12819;DHT22;6474;53.474;9.894;2023-12-22T13:30:34;4.80;96.80
12819;DHT22;6474;53.474;9.894;2023-12-22T13:33:04;4.80;96.80
12819;DHT22;6474;53.474;9.894;2023-12-22T13:35:32;4.80;96.80
12819;DHT22;6474;53.474;9.894;2023-12-22T13:38:07;4.80;96.80
12819;DHT22;6474;53.474;9.894;2023-12-22T13:40:35;4.80;96.80
12819;DHT22;6474;53.474;9.894;2023-12-22T13:43:05;4.80;96.80
12819;DHT22;6474;53.474;9.894;2023-12-22T13:45:35;4.80;96.80
12819;DHT22;6474;53.474;9.894;2023-12-22T13:48:05;4.80;96.80
12819;DHT22;6474;53.474;9.894;2023-12-22T13:50:33;4.80;96.80
12819;DHT22;6474;53.474;9.894;2023-12-22T13:53:09;4.80;96.90
12819;DHT22;6474;53.474;9.894;2023-12-22T13:55:37;4.90;96.90
12819;DHT22;6474;53.474;9.894;2023-12-22T13:58:06;4.90;96.90
12819;DHT22;6474;53.474;9.894;2023-12-22T14:00:35;4.90;97.00
12819;DHT22;6474;53.474;9.894;2023-12-22T14:03:06;4.90;97.00
12819;DHT22;6474;53.474;9.894;2023-12-22T14:05:34;4.90;97.00
12819;DHT22;6474;53.474;9.894;2023-12-22T14:08:04;4.90;96.90
12819;DHT22;6474;53.474;9.894;2023-12-22T14:10:32;5.00;97.00
12819;DHT22;6474;53.474;9.894;2023-12-22T14:13:00;5.00;97.00
12819;DHT22;6474;53.474;9.894;2023-12-22T14:15:29;5.00;97.00
12819;DHT22;6474;53.474;9.894;2023-12-22T14:18:11;5.00;97.00
12819;DHT22;6474;53.474;9.894;2023-12-22T14:20:39;5.00;96.90
12819;DHT22;6474;53.474;9.894;2023-12-22T14:23:07;5.00;96.80
12819;DHT22;6474;53.474;9.894;2023-12-22T14:25:40;4.90;96.60
12819;DHT22;6474;53.474;9.894;2023-12-22T14:28:08;4.80;96.20
12819;DHT22;6474;53.474;9.894;2023-12-22T14:30:36;4.70;96.20
12819;DHT22;6474;53.474;9.894;2023-12-22T14:33:04;4.60;96.20
12819;DHT22;6474;53.474;9.894;2023-12-22T14:35:33;4.50;96.30
12819;DHT22;6474;53.474;9.894;2023-12-22T14:38:01;4.40;96.40
12819;DHT22;6474;53.474;9.894;2023-12-22T14:40:29;4.40;96.50
12819;DHT22;6474;53.474;9.894;2023-12-22T14:42:57;4.40;96.60
12819;DHT22;6474;53.474;9.894;2023-12-22T14:45:25;4.30;96.60
12819;DHT22;6474;53.474;9.894;2023-12-22T14:47:53;4.30;96.70
12819;DHT22;6474;53.474;9.894;2023-12-22T14:50:21;4.30;96.70
12819;DHT22;6474;53.474;9.894;2023-12-22T14:52:51;4.30;96.70
12819;DHT22;6474;53.474;9.894;2023-12-22T14:55:19;4.30;96.70
12819;DHT22;6474;53.474;9.894;2023-12-22T14:57:48;4.30;96.70
12819;DHT22;6474;53.474;9.894;2023-12-22T15:00:16;4.30;96.70
12819;DHT22;6474;53.474;9.894;2023-12-22T15:02:45;4.30;96.70
12819;DHT22;6474;53.474;9.894;2023-12-22T15:05:13;4.30;96.70
12819;DHT22;6474;53.474;9.894;2023-12-22T15:07:42;4.30;96.70
12819;DHT22;6474;53.474;9.894;2023-12-22T15:10:12;4.30;96.70
12819;DHT22;6474;53.474;9.894;2023-12-22T15:12:40;4.30;96.60
12819;DHT22;6474;53.474;9.894;2023-12-22T15:15:09;4.30;96.60
12819;DHT22;6474;53.474;9.894;2023-12-22T15:17:37;4.30;96.60
12819;DHT22;6474;53.474;9.894;2023-12-22T15:20:06;4.30;96.60
12819;DHT22;6474;53.474;9.894;2023-12-22T15:22:38;4.30;96.60
12819;DHT22;6474;53.474;9.894;2023-12-22T15:25:07;4.30;96.60
12819;DHT22;6474;53.474;9.894;2023-12-22T15:27:36;4.30;96.60
12819;DHT22;6474;53.474;9.894;2023-12-22T15:30:07;4.30;96.60
12819;DHT22;6474;53.474;9.894;2023-12-22T15:32:34;4.30;96.60
12819;DHT22;6474;53.474;9.894;2023-12-22T15:35:03;4.30;96.60
12819;DHT22;6474;53.474;9.894;2023-12-22T15:37:31;4.30;96.50
12819;DHT22;6474;53.474;9.894;2023-12-22T15:40:02;4.30;96.50
12819;DHT22;6474;53.474;9.894;2023-12-22T15:42:30;4.40;96.60
12819;DHT22;6474;53.474;9.894;2023-12-22T15:45:00;4.40;96.60
12819;DHT22;6474;53.474;9.894;2023-12-22T15:47:28;4.40;96.60
12819;DHT22;6474;53.474;9.894;2023-12-22T15:49:56;4.40;96.60
12819;DHT22;6474;53.474;9.894;2023-12-22T15:52:24;4.40;96.50
12819;DHT22;6474;53.474;9.894;2023-12-22T15:54:52;4.40;96.60
12819;DHT22;6474;53.474;9.894;2023-12-22T15:57:20;4.40;96.60
12819;DHT22;6474;53.474;9.894;2023-12-22T15:59:47;4.40;96.60
12819;DHT22;6474;53.474;9.894;2023-12-22T16:02:17;4.40;96.60
12819;DHT22;6474;53.474;9.894;2023-12-22T16:04:44;4.40;96.70
12819;DHT22;6474;53.474;9.894;2023-12-22T16:07:12;4.40;96.70
12819;DHT22;6474;53.474;9.894;2023-12-22T16:09:40;4.40;96.70
12819;DHT22;6474;53.474;9.894;2023-12-22T16:12:08;4.40;96.70
12819;DHT22;6474;53.474;9.894;2023-12-22T16:14:36;4.40;96.70
12819;DHT22;6474;53.474;9.894;2023-12-22T16:17:04;4.40;96.70
12819;DHT22;6474;53.474;9.894;2023-12-22T16:19:37;4.50;96.70
12819;DHT22;6474;53.474;9.894;2023-12-22T16:22:05;4.40;96.60
12819;DHT22;6474;53.474;9.894;2023-12-22T16:24:32;4.40;96.50
12819;DHT22;6474;53.474;9.894;2023-12-22T16:27:00;4.40;96.50
12819;DHT22;6474;53.474;9.894;2023-12-22T16:29:28;4.40;96.50
12819;DHT22;6474;53.474;9.894;2023-12-22T16:31:56;4.40;96.90
12819;DHT22;6474;53.474;9.894;2023-12-22T16:34:24;4.40;96.70
12819;DHT22;6474;53.474;9.894;2023-12-22T16:36:53;4.40;96.70
12819;DHT22;6474;53.474;9.894;2023-12-22T16:39:21;4.40;96.70
12819;DHT22;6474;53.474;9.894;2023-12-22T16:41:49;4.40;96.70
12819;DHT22;6474;53.474;9.894;2023-12-22T16:44:17;4.50;96.70
12819;DHT22;6474;53.474;9.894;2023-12-22T16:46:48;4.50;96.70
12819;DHT22;6474;53.474;9.894;2023-12-22T16:49:16;4.50;96.70
12819;DHT22;6474;53.474;9.894;2023-12-22T16:51:45;4.50;96.70
12819;DHT22;6474;53.474;9.894;2023-12-22T16:54:15;4.50;96.70
12819;DHT22;6474;53.474;9.894;2023-12-22T16:56:43;4.50;96.70
12819;DHT22;6474;53.474;9.894;2023-12-22T16:59:10;4.50;96.70
12819;DHT22;6474;53.474;9.894;2023-12-22T17:01:38;4.50;96.70
12819;DHT22;6474;53.474;9.894;2023-12-22T17:04:14;4.50;96.80
12819;DHT22;6474;53.474;9.894;2023-12-22T17:06:49;4.50;96.80
12819;DHT22;6474;53.474;9.894;2023-12-22T17:09:22;4.50;96.90
12819;DHT22;6474;53.474;9.894;2023-12-22T17:11:51;4.50;96.90
12819;DHT22;6474;53.474;9.894;2023-12-22T17:14:19;4.60;96.90
12819;DHT22;6474;53.474;9.894;2023-12-22T17:16:48;4.60;96.90
12819;DHT22;6474;53.474;9.894;2023-12-22T17:19:17;4.60;96.90
12819;DHT22;6474;53.474;9.894;2023-12-22T17:21:45;4.60;96.90
12819;DHT22;6474;53.474;9.894;2023-12-22T17:24:13;4.60;96.90
12819;DHT22;6474;53.474;9.894;2023-12-22T17:26:45;4.70;96.90
12819;DHT22;6474;53.474;9.894;2023-12-22T17:29:13;4.60;96.90
12819;DHT22;6474;53.474;9.894;2023-12-22T17:31:41;4.70;97.20
12819;DHT22;6474;53.474;9.894;2023-12-22T17:34:09;4.70;96.90
12819;DHT22;6474;53.474;9.894;2023-12-22T17:36:40;4.70;97.00
12819;DHT22;6474;53.474;9.894;2023-12-22T17:39:08;4.70;96.90
12819;DHT22;6474;53.474;9.894;2023-12-22T17:41:36;4.70;96.90
12819;DHT22;6474;53.474;9.894;2023-12-22T17:44:09;4.70;96.90
12819;DHT22;6474;53.474;9.894;2023-12-22T17:46:37;4.70;96.90
12819;DHT22;6474;53.474;9.894;2023-12-22T17:49:07;4.70;96.90
12819;DHT22;6474;53.474;9.894;2023-12-22T17:51:35;4.70;96.90
12819;DHT22;6474;53.474;9.894;2023-12-22T17:54:03;4.70;96.80
12819;DHT22;6474;53.474;9.894;2023-12-22T17:56:31;4.70;96.80
12819;DHT22;6474;53.474;9.894;2023-12-22T17:58:59;4.70;96.80
12819;DHT22;6474;53.474;9.894;2023-12-22T18:01:29;4.70;96.80
12819;DHT22;6474;53.474;9.894;2023-12-22T18:03:57;4.70;96.80
12819;DHT22;6474;53.474;9.894;2023-12-22T18:06:25;4.60;96.80
12819;DHT22;6474;53.474;9.894;2023-12-22T18:08:55;4.60;96.70
12819;DHT22;6474;53.474;9.894;2023-12-22T18:11:23;4.60;96.70
12819;DHT22;6474;53.474;9.894;2023-12-22T18:13:50;4.60;96.70
12819;DHT22;6474;53.474;9.894;2023-12-22T18:16:21;4.60;96.70
12819;DHT22;6474;53.474;9.894;2023-12-22T18:18:51;4.60;96.70
12819;DHT22;6474;53.474;9.894;2023-12-22T18:21:19;4.60;96.70
12819;DHT22;6474;53.474;9.894;2023-12-22T18:23:47;4.50;96.60
12819;DHT22;6474;53.474;9.894;2023-12-22T18:26:14;4.50;96.50
12819;DHT22;6474;53.474;9.894;2023-12-22T18:28:42;4.50;96.50
12819;DHT22;6474;53.474;9.894;2023-12-22T18:31:12;4.50;96.50
12819;DHT22;6474;53.474;9.894;2023-12-22T18:33:41;4.50;96.50
12819;DHT22;6474;53.474;9.894;2023-12-22T18:36:11;4.50;96.50
12819;DHT22;6474;53.474;9.894;2023-12-22T18:38:41;4.50;96.50
12819;DHT22;6474;53.474;9.894;2023-12-22T18:41:10;4.50;96.50
12819;DHT22;6474;53.474;9.894;2023-12-22T18:43:38;4.50;96.50
12819;DHT22;6474;53.474;9.894;2023-12-22T18:46:06;4.50;96.50
12819;DHT22;6474;53.474;9.894;2023-12-22T18:48:34;4.50;96.40
12819;DHT22;6474;53.474;9.894;2023-12-22T18:51:03;4.50;96.40
12819;DHT22;6474;53.474;9.894;2023-12-22T18:53:50;4.50;96.50
12819;DHT22;6474;53.474;9.894;2023-12-22T18:56:21;4.50;96.50
12819;DHT22;6474;53.474;9.894;2023-12-22T18:58:49;4.50;96.50
12819;DHT22;6474;53.474;9.894;2023-12-22T19:01:17;4.50;96.60
12819;DHT22;6474;53.474;9.894;2023-12-22T19:04:05;4.50;96.60
12819;DHT22;6474;53.474;9.894;2023-12-22T19:06:34;4.60;96.60
12819;DHT22;6474;53.474;9.894;2023-12-22T19:09:03;4.50;96.60
12819;DHT22;6474;53.474;9.894;2023-12-22T19:11:31;4.60;96.70
12819;DHT22;6474;53.474;9.894;2023-12-22T19:14:00;4.60;96.70
12819;DHT22;6474;53.474;9.894;2023-12-22T19:16:28;4.60;96.70
12819;DHT22;6474;53.474;9.894;2023-12-22T19:18:56;4.70;96.70
12819;DHT22;6474;53.474;9.894;2023-12-22T19:21:24;4.70;96.70
12819;DHT22;6474;53.474;9.894;2023-12-22T19:23:52;4.70;96.70
12819;DHT22;6474;53.474;9.894;2023-12-22T19:26:21;4.70;96.50
12819;DHT22;6474;53.474;9.894;2023-12-22T19:28:49;4.70;96.50
12819;DHT22;6474;53.474;9.894;2023-12-22T19:31:18;4.70;96.40
12819;DHT22;6474;53.474;9.894;2023-12-22T19:33:47;4.70;96.70
12819;DHT22;6474;53.474;9.894;2023-12-22T19:36:16;4.60;96.40
12819;DHT22;6474;53.474;9.894;2023-12-22T19:38:44;4.60;96.40
12819;DHT22;6474;53.474;9.894;2023-12-22T19:41:12;4.60;96.30
12819;DHT22;6474;53.474;9.894;2023-12-22T19:43:41;4.50;96.20
12819;DHT22;6474;53.474;9.894;2023-12-22T19:46:09;4.50;96.30
12819;DHT22;6474;53.474;9.894;2023-12-22T19:48:37;4.50;96.30
12819;DHT22;6474;53.474;9.894;2023-12-22T19:51:05;4.40;96.20
12819;DHT22;6474;53.474;9.894;2023-12-22T19:53:37;4.40;96.30
12819;DHT22;6474;53.474;9.894;2023-12-22T19:56:05;4.40;96.30
12819;DHT22;6474;53.474;9.894;2023-12-22T19:58:34;4.40;96.30
12819;DHT22;6474;53.474;9.894;2023-12-22T20:01:05;4.30;96.30
12819;DHT22;6474;53.474;9.894;2023-12-22T20:03:33;4.30;96.30
12819;DHT22;6474;53.474;9.894;2023-12-22T20:06:01;4.30;96.30
12819;DHT22;6474;53.474;9.894;2023-12-22T20:08:31;4.30;96.30
12819;DHT22;6474;53.474;9.894;2023-12-22T20:11:01;4.30;96.30
12819;DHT22;6474;53.474;9.894;2023-12-22T20:13:29;4.30;96.30
12819;DHT22;6474;53.474;9.894;2023-12-22T20:15:57;4.20;96.20
12819;DHT22;6474;53.474;9.894;2023-12-22T20:18:29;4.20;96.30
12819;DHT22;6474;53.474;9.894;2023-12-22T20:20:57;4.20;96.40
12819;DHT22;6474;53.474;9.894;2023-12-22T20:23:25;4.20;96.40
12819;DHT22;6474;53.474;9.894;2023-12-22T20:25:53;4.20;96.50
12819;DHT22;6474;53.474;9.894;2023-12-22T20:28:22;4.20;96.50
12819;DHT22;6474;53.474;9.894;2023-12-22T20:30:51;4.30;96.50
12819;DHT22;6474;53.474;9.894;2023-12-22T20:33:19;4.30;96.60
12819;DHT22;6474;53.474;9.894;2023-12-22T20:35:49;4.30;96.60
12819;DHT22;6474;53.474;9.894;2023-12-22T20:38:18;4.30;96.50
12819;DHT22;6474;53.474;9.894;2023-12-22T20:40:46;4.30;96.50
12819;DHT22;6474;53.474;9.894;2023-12-22T20:43:14;4.30;96.40
12819;DHT22;6474;53.474;9.894;2023-12-22T20:45:42;4.30;96.30
12819;DHT22;6474;53.474;9.894;2023-12-22T20:48:11;4.20;96.20
12819;DHT22;6474;53.474;9.894;2023-12-22T20:50:39;4.20;96.30
12819;DHT22;6474;53.474;9.894;2023-12-22T20:53:09;4.20;96.40
12819;DHT22;6474;53.474;9.894;2023-12-22T20:55:37;4.30;96.60
12819;DHT22;6474;53.474;9.894;2023-12-22T20:58:06;4.30;96.60
12819;DHT22;6474;53.474;9.894;2023-12-22T21:00:36;4.30;96.70
12819;DHT22;6474;53.474;9.894;2023-12-22T21:03:04;4.40;96.60
12819;DHT22;6474;53.474;9.894;2023-12-22T21:05:32;4.40;96.50
12819;DHT22;6474;53.474;9.894;2023-12-22T21:08:00;4.40;96.40
12819;DHT22;6474;53.474;9.894;2023-12-22T21:10:31;4.30;96.30
12819;DHT22;6474;53.474;9.894;2023-12-22T21:13:03;4.30;96.40
12819;DHT22;6474;53.474;9.894;2023-12-22T21:15:32;4.40;96.50
12819;DHT22;6474;53.474;9.894;2023-12-22T21:18:00;4.40;96.50
12819;DHT22;6474;53.474;9.894;2023-12-22T21:20:28;4.40;96.40
12819;DHT22;6474;53.474;9.894;2023-12-22T21:22:56;4.40;96.40
12819;DHT22;6474;53.474;9.894;2023-12-22T21:25:24;4.40;96.40
12819;DHT22;6474;53.474;9.894;2023-12-22T21:27:53;4.40;96.40
12819;DHT22;6474;53.474;9.894;2023-12-22T21:30:21;4.40;96.50
12819;DHT22;6474;53.474;9.894;2023-12-22T21:32:49;4.40;96.50
12819;DHT22;6474;53.474;9.894;2023-12-22T21:35:18;4.50;96.60
12819;DHT22;6474;53.474;9.894;2023-12-22T21:37:45;4.50;96.60
12819;DHT22;6474;53.474;9.894;2023-12-22T21:40:14;4.50;96.50
12819;DHT22;6474;53.474;9.894;2023-12-22T21:42:43;4.50;96.40
12819;DHT22;6474;53.474;9.894;2023-12-22T21:45:14;4.50;96.30
12819;DHT22;6474;53.474;9.894;2023-12-22T21:47:43;4.50;96.20
12819;DHT22;6474;53.474;9.894;2023-12-22T21:50:13;4.50;96.20
12819;DHT22;6474;53.474;9.894;2023-12-22T21:52:41;4.40;96.20
12819;DHT22;6474;53.474;9.894;2023-12-22T21:55:11;4.40;96.20
12819;DHT22;6474;53.474;9.894;2023-12-22T21:57:39;4.40;96.30
12819;DHT22;6474;53.474;9.894;2023-12-22T22:00:09;4.40;96.30
12819;DHT22;6474;53.474;9.894;2023-12-22T22:02:40;4.40;96.40
12819;DHT22;6474;53.474;9.894;2023-12-22T22:05:10;4.40;96.50
12819;DHT22;6474;53.474;9.894;2023-12-22T22:07:39;4.40;96.50
12819;DHT22;6474;53.474;9.894;2023-12-22T22:10:08;4.40;96.50
12819;DHT22;6474;53.474;9.894;2023-12-22T22:12:36;4.50;96.60
12819;DHT22;6474;53.474;9.894;2023-12-22T22:15:06;4.50;96.60
12819;DHT22;6474;53.474;9.894;2023-12-22T22:17:35;4.50;96.50
12819;DHT22;6474;53.474;9.894;2023-12-22T22:20:08;4.50;96.40
12819;DHT22;6474;53.474;9.894;2023-12-22T22:22:36;4.40;96.20
12819;DHT22;6474;53.474;9.894;2023-12-22T22:25:05;4.40;96.20
12819;DHT22;6474;53.474;9.894;2023-12-22T22:27:36;4.30;96.10
12819;DHT22;6474;53.474;9.894;2023-12-22T22:30:05;4.30;96.10
12819;DHT22;6474;53.474;9.894;2023-12-22T22:32:34;4.20;96.20
12819;DHT22;6474;53.474;9.894;2023-12-22T22:35:06;4.20;96.20
12819;DHT22;6474;53.474;9.894;2023-12-22T22:37:34;4.20;96.20
12819;DHT22;6474;53.474;9.894;2023-12-22T22:40:04;4.10;96.20
12819;DHT22;6474;53.474;9.894;2023-12-22T22:42:35;4.10;96.20
12819;DHT22;6474;53.474;9.894;2023-12-22T22:45:03;4.10;96.20
12819;DHT22;6474;53.474;9.894;2023-12-22T22:47:32;4.00;96.10
12819;DHT22;6474;53.474;9.894;2023-12-22T22:49:59;4.00;96.20
12819;DHT22;6474;53.474;9.894;2023-12-22T22:52:28;4.00;96.20
12819;DHT22;6474;53.474;9.894;2023-12-22T22:54:57;4.00;96.20
12819;DHT22;6474;53.474;9.894;2023-12-22T22:57:24;3.90;96.20
12819;DHT22;6474;53.474;9.894;2023-12-22T22:59:53;3.90;96.20
12819;DHT22;6474;53.474;9.894;2023-12-22T23:02:21;3.90;96.10
12819;DHT22;6474;53.474;9.894;2023-12-22T23:04:49;3.80;96.00
12819;DHT22;6474;53.474;9.894;2023-12-22T23:07:17;3.80;96.00
12819;DHT22;6474;53.474;9.894;2023-12-22T23:09:46;3.70;96.00
12819;DHT22;6474;53.474;9.894;2023-12-22T23:12:14;3.70;96.00
12819;DHT22;6474;53.474;9.894;2023-12-22T23:14:42;3.70;96.00
12819;DHT22;6474;53.474;9.894;2023-12-22T23:17:10;3.60;96.00
12819;DHT22;6474;53.474;9.894;2023-12-22T23:19:38;3.60;96.00
12819;DHT22;6474;53.474;9.894;2023-12-22T23:22:08;3.60;96.00
12819;DHT22;6474;53.474;9.894;2023-12-22T23:24:36;3.60;96.00
12819;DHT22;6474;53.474;9.894;2023-12-22T23:27:05;3.50;96.00
12819;DHT22;6474;53.474;9.894;2023-12-22T23:29:34;3.50;96.00
12819;DHT22;6474;53.474;9.894;2023-12-22T23:32:02;3.50;96.20
12819;DHT22;6474;53.474;9.894;2023-12-22T23:34:30;3.50;96.20
12819;DHT22;6474;53.474;9.894;2023-12-22T23:36:58;3.60;96.30
12819;DHT22;6474;53.474;9.894;2023-12-22T23:39:26;3.60;96.20
12819;DHT22;6474;53.474;9.894;2023-12-22T23:41:54;3.60;96.20
12819;DHT22;6474;53.474;9.894;2023-12-22T23:44:24;3.70;96.10
12819;DHT22;6474;53.474;9.894;2023-12-22T23:46:53;3.60;96.00
12819;DHT22;6474;53.474;9.894;2023-12-22T23:49:21;3.60;96.00
12819;DHT22;6474;53.474;9.894;2023-12-22T23:51:49;3.60;96.00
12819;DHT22;6474;53.474;9.894;2023-12-22T23:54:17;3.60;95.90
12819;DHT22;6474;53.474;9.894;2023-12-22T23:56:44;3.60;96.20
12819;DHT22;6474;53.474;9.894;2023-12-22T23:59:13;3.60;95.90
